Time;durP1;ratioP1;P1;durP2;ratioP2;P2;SDS_P1;SDS_P2;PMS_P1;PMS_P2;Temp;Humidity;BMP_temperature;BMP_pressure;BME280_temperature;BME280_humidity;BME280_pressure;Samples;Min_cycle;Max_cycle;Signal;HPM_P1;HPM_P2
2022/11/07 00:00:26;;;;;;;;;;;;;;;13.48;62.55;100166.13;4359371;32;19991;-83
2022/11/07 00:02:53;;;;;;;;;;;;;;;13.13;63.58;100165.72;4354370;32;19979;-83
2022/11/07 00:05:21;;;;;;;;;;;;;;;13.44;62.48;100171.28;4366816;32;19979;-84
2022/11/07 00:07:47;;;;;;;;;;;;;;;13.40;62.57;100172.09;4356358;32;19979;-84
2022/11/07 00:10:14;;;;;;;;;;;;;;;13.21;63.22;100178.81;4367417;32;20014;-84
2022/11/07 00:12:41;;;;;;;;;;;;;;;13.34;62.79;100180.72;4367041;32;19994;-83
2022/11/07 00:15:08;;;;;;;;;;;;;;;13.23;63.03;100183.16;4356945;32;20327;-84
2022/11/07 00:17:35;;;;;;;;;;;;;;;13.11;63.71;100176.94;4355195;32;19987;-84
2022/11/07 00:20:01;;;;;;;;;;;;;;;13.09;63.66;100173.47;4366131;32;20017;-84
2022/11/07 00:22:28;;;;;;;;;;;;;;;13.34;62.70;100179.84;4357415;32;20034;-84
2022/11/07 00:24:55;;;;;;;;;;;;;;;13.48;62.31;100192.13;4351626;32;19970;-83
2022/11/07 00:27:23;;;;;;;;;;;;;;;13.43;62.43;100191.22;4346894;32;20003;-85
2022/11/07 00:29:50;;;;;;;;;;;;;;;13.31;63.10;100195.41;4341062;33;19992;-85
2022/11/07 00:32:17;;;;;;;;;;;;;;;13.28;63.05;100200.59;4346527;32;19999;-84
2022/11/07 00:34:43;;;;;;;;;;;;;;;13.27;63.46;100199.69;4347459;32;20001;-84
2022/11/07 00:37:10;;;;;;;;;;;;;;;13.36;63.22;100205.00;4340812;32;19984;-84
2022/11/07 00:39:38;;;;;;;;;;;;;;;13.14;63.96;100203.84;4352804;32;19983;-84
2022/11/07 00:42:04;;;;;;;;;;;;;;;13.32;63.50;100197.16;4340713;33;19987;-85
2022/11/07 00:44:31;;;;;;;;;;;;;;;13.39;63.35;100194.62;4340569;33;19971;-84
2022/11/07 00:46:58;;;;;;;;;;;;;;;13.54;62.66;100187.84;4346772;32;19980;-83
2022/11/07 00:49:24;;;;;;;;;;;;;;;13.40;63.21;100191.19;4354441;32;20002;-84
2022/11/07 00:51:51;;;;;;;;;;;;;;;13.34;63.82;100193.72;4350689;32;19991;-85
2022/11/07 00:54:18;;;;;;;;;;;;;;;13.53;63.25;100188.69;4341004;33;19994;-83
2022/11/07 00:56:45;;;;;;;;;;;;;;;13.52;63.00;100184.34;4353328;32;19983;-83
2022/11/07 00:59:12;;;;;;;;;;;;;;;13.61;63.04;100187.03;4340568;32;20007;-84
2022/11/07 01:01:39;;;;;;;;;;;;;;;13.67;62.62;100189.69;4348563;32;19987;-83
2022/11/07 01:06:51;;;;;;;;;;;;;;;13.71;62.75;100191.47;4340624;33;20443;-85
2022/11/07 01:09:19;;;;;;;;;;;;;;;13.59;63.33;100191.34;4361037;32;20095;-83
2022/11/07 01:11:46;;;;;;;;;;;;;;;13.72;62.98;100194.09;4348304;32;20498;-83
2022/11/07 01:14:13;;;;;;;;;;;;;;;13.42;64.43;100194.66;4347343;32;19972;-84
2022/11/07 01:16:40;;;;;;;;;;;;;;;13.42;64.65;100205.06;4348894;32;20014;-83
2022/11/07 01:19:07;;;;;;;;;;;;;;;13.65;63.75;100199.22;4345642;32;20050;-84
2022/11/07 01:21:36;;;;;;;;;;;;;;;13.72;63.17;100188.88;4340564;32;19979;-84
2022/11/07 01:24:02;;;;;;;;;;;;;;;13.65;63.52;100191.41;4347165;32;19987;-84
2022/11/07 01:26:29;;;;;;;;;;;;;;;13.59;63.69;100186.13;4347008;32;20007;-83
2022/11/07 01:28:56;;;;;;;;;;;;;;;13.74;63.33;100181.09;4347063;32;19990;-84
2022/11/07 01:31:23;;;;;;;;;;;;;;;13.95;62.55;100191.69;4351384;32;20001;-84
2022/11/07 01:33:49;;;;;;;;;;;;;;;13.69;63.56;100188.00;4355616;32;20046;-84
2022/11/07 01:36:17;;;;;;;;;;;;;;;13.60;64.04;100193.09;4366600;32;19979;-83
2022/11/07 01:38:45;;;;;;;;;;;;;;;13.59;64.12;100189.66;4365894;32;19997;-85
2022/11/07 01:41:22;;;;;;;;;;;;;;;13.73;63.90;100189.75;4345714;32;20005;-85
2022/11/07 01:43:49;;;;;;;;;;;;;;;13.63;64.24;100198.34;4347540;32;20030;-84
2022/11/07 01:46:16;;;;;;;;;;;;;;;13.66;64.08;100193.16;4340806;32;20042;-83
2022/11/07 01:48:44;;;;;;;;;;;;;;;13.68;64.15;100204.44;4340590;32;19988;-84
2022/11/07 01:51:11;;;;;;;;;;;;;;;13.96;63.13;100198.62;4340645;33;19980;-85
2022/11/07 01:53:38;;;;;;;;;;;;;;;13.80;63.61;100201.97;4340971;32;19972;-85
2022/11/07 01:56:06;;;;;;;;;;;;;;;13.71;63.90;100201.88;4350594;32;19998;-84
2022/11/07 01:58:32;;;;;;;;;;;;;;;13.73;63.79;100200.16;4342932;32;19996;-84
2022/11/07 02:01:00;;;;;;;;;;;;;;;13.92;63.33;100196.00;4340873;32;20018;-84
2022/11/07 02:03:27;;;;;;;;;;;;;;;13.81;63.62;100192.41;4357168;32;19991;-84
2022/11/07 02:05:56;;;;;;;;;;;;;;;13.84;63.72;100198.50;4353259;32;20022;-84
2022/11/07 02:08:23;;;;;;;;;;;;;;;13.77;63.86;100201.94;4366230;32;20002;-84
2022/11/07 02:10:50;;;;;;;;;;;;;;;14.08;63.09;100207.41;4358921;32;20011;-84
2022/11/07 02:13:19;;;;;;;;;;;;;;;13.92;63.80;100207.28;4359463;32;20022;-85
2022/11/07 02:15:45;;;;;;;;;;;;;;;13.80;64.45;100206.28;4353966;32;20006;-83
2022/11/07 02:18:13;;;;;;;;;;;;;;;13.72;64.64;100198.44;4354807;32;19987;-83
2022/11/07 02:20:39;;;;;;;;;;;;;;;13.92;63.93;100196.84;4359935;32;20347;-85
2022/11/07 02:23:07;;;;;;;;;;;;;;;13.95;63.89;100202.09;4354986;32;19995;-84
2022/11/07 02:25:34;;;;;;;;;;;;;;;13.90;64.10;100198.56;4366167;32;19983;-84
2022/11/07 02:28:02;;;;;;;;;;;;;;;13.66;65.09;100198.38;4376295;32;20367;-85
2022/11/07 02:30:30;;;;;;;;;;;;;;;13.96;64.17;100198.62;4356084;32;19979;-83
2022/11/07 02:32:56;;;;;;;;;;;;;;;14.06;63.49;100198.69;4363742;32;19983;-85
2022/11/07 02:35:30;;;;;;;;;;;;;;;13.99;63.73;100196.91;4357051;32;20035;-83
2022/11/07 02:37:57;;;;;;;;;;;;;;;13.99;63.97;100196.91;4355266;32;19988;-83
2022/11/07 02:40:23;;;;;;;;;;;;;;;14.04;63.95;100195.19;4354913;32;19998;-85
2022/11/07 02:42:50;;;;;;;;;;;;;;;13.90;64.74;100188.16;4359799;32;19994;-83
2022/11/07 02:45:30;;;;;;;;;;;;;;;14.11;63.89;100197.00;4367116;32;20002;-85
2022/11/07 02:47:56;;;;;;;;;;;;;;;14.08;63.98;100187.44;4368695;32;20419;-85
2022/11/07 02:50:23;;;;;;;;;;;;;;;14.10;63.91;100184.81;4358389;32;20337;-85
2022/11/07 02:52:50;;;;;;;;;;;;;;;14.06;64.02;100185.69;4365881;32;19975;-84
2022/11/07 02:55:17;;;;;;;;;;;;;;;14.23;63.60;100186.69;4357205;32;20005;-84
2022/11/07 02:57:44;;;;;;;;;;;;;;;13.72;65.23;100188.88;4367644;32;19991;-85
2022/11/07 03:00:11;;;;;;;;;;;;;;;14.07;64.14;100190.00;4355261;32;19983;-84
2022/11/07 03:02:39;;;;;;;;;;;;;;;14.01;64.43;100179.56;4353349;32;19979;-84
2022/11/07 03:05:06;;;;;;;;;;;;;;;14.15;64.06;100188.34;4361066;32;20317;-84
2022/11/07 03:07:33;;;;;;;;;;;;;;;13.93;64.93;100179.50;4359948;32;19991;-84
2022/11/07 03:10:00;;;;;;;;;;;;;;;14.15;64.24;100177.94;4354599;32;19987;-85
2022/11/07 03:12:27;;;;;;;;;;;;;;;13.92;64.87;100181.25;4364586;32;20061;-85
2022/11/07 03:14:54;;;;;;;;;;;;;;;13.73;65.76;100182.81;4367631;32;20297;-83
2022/11/07 03:17:21;;;;;;;;;;;;;;;14.11;64.47;100186.59;4355023;32;21146;-83
2022/11/07 03:19:48;;;;;;;;;;;;;;;14.17;64.47;100194.44;4355422;32;20348;-85
2022/11/07 03:22:17;;;;;;;;;;;;;;;14.21;64.46;100188.41;4365804;32;19975;-84
2022/11/07 03:24:43;;;;;;;;;;;;;;;14.25;64.26;100184.94;4355575;32;19991;-84
2022/11/07 03:27:11;;;;;;;;;;;;;;;14.25;64.36;100190.16;4364480;32;19978;-84
2022/11/07 03:29:38;;;;;;;;;;;;;;;14.25;64.46;100195.34;4358455;32;20017;-82
2022/11/07 03:32:05;;;;;;;;;;;;;;;14.41;63.91;100191.12;4362556;32;20026;-82
2022/11/07 03:34:32;;;;;;;;;;;;;;;14.43;63.81;100185.06;4358345;32;20257;-82
2022/11/07 03:36:59;;;;;;;;;;;;;;;14.41;63.87;100186.78;4354529;32;20029;-83
2022/11/07 03:39:25;;;;;;;;;;;;;;;14.42;64.03;100191.16;4354344;32;20041;-83
2022/11/07 03:41:52;;;;;;;;;;;;;;;14.48;63.86;100192.91;4363892;32;19990;-84
2022/11/07 03:44:19;;;;;;;;;;;;;;;14.47;63.93;100192.91;4358071;32;19991;-83
2022/11/07 03:46:46;;;;;;;;;;;;;;;14.54;63.79;100192.97;4361824;32;19994;-83
2022/11/07 03:49:13;;;;;;;;;;;;;;;14.30;64.56;100183.25;4360115;32;19991;-82
2022/11/07 03:51:39;;;;;;;;;;;;;;;14.43;64.19;100187.66;4354568;32;19976;-82
2022/11/07 03:54:06;;;;;;;;;;;;;;;14.49;64.00;100193.78;4362441;32;20102;-83
2022/11/07 03:56:33;;;;;;;;;;;;;;;14.63;63.36;100198.22;4358932;32;19986;-84
2022/11/07 03:59:00;;;;;;;;;;;;;;;14.71;63.20;100195.69;4351772;32;20006;-84
2022/11/07 04:01:26;;;;;;;;;;;;;;;14.47;64.08;100200.72;4363128;32;19970;-84
2022/11/07 04:03:53;;;;;;;;;;;;;;;14.57;63.83;100213.81;4356241;32;20014;-84
2022/11/07 04:06:22;;;;;;;;;;;;;;;14.41;64.65;100212.81;4354415;32;20296;-84
2022/11/07 04:08:49;;;;;;;;;;;;;;;14.58;64.08;100209.47;4361227;32;20045;-84
2022/11/07 04:19:32;;;;;;;;;;;;;;;14.66;64.01;100218.22;4344585;32;20004;-84
2022/11/07 04:21:59;;;;;;;;;;;;;;;14.67;63.70;100219.97;4373033;32;20368;-83
2022/11/07 04:24:25;;;;;;;;;;;;;;;14.57;64.15;100220.78;4356805;32;19980;-83
2022/11/07 04:29:38;;;;;;;;;;;;;;;14.67;64.04;100214.75;4364143;32;19987;-84
2022/11/07 04:32:04;;;;;;;;;;;;;;;14.64;63.94;100214.72;4356242;32;20823;-84
2022/11/07 04:34:31;;;;;;;;;;;;;;;14.60;64.17;100207.75;4364541;32;20021;-83
2022/11/07 04:36:58;;;;;;;;;;;;;;;14.73;63.63;100212.19;4355805;32;20042;-84
2022/11/07 04:39:25;;;;;;;;;;;;;;;14.70;63.52;100204.34;4353239;32;20359;-84
2022/11/07 04:41:51;;;;;;;;;;;;;;;14.23;65.44;100207.53;4361443;32;20457;-84
2022/11/07 04:44:18;;;;;;;;;;;;;;;14.37;65.17;100198.06;4358543;32;20003;-83
2022/11/07 04:46:45;;;;;;;;;;;;;;;14.37;65.00;100195.44;4333951;32;20411;-84
2022/11/07 04:49:14;;;;;;;;;;;;;;;14.60;64.13;100193.00;4332052;33;19998;-84
2022/11/07 04:51:42;;;;;;;;;;;;;;;14.68;63.82;100195.66;4326218;33;19971;-84
2022/11/07 04:54:12;;;;;;;;;;;;;;;14.67;63.68;100199.13;4338622;33;19984;-84
2022/11/07 04:56:39;;;;;;;;;;;;;;;14.58;63.97;100199.06;4326096;33;20023;-83
2022/11/07 04:59:06;;;;;;;;;;;;;;;14.70;63.56;100204.34;4030961;32;10001115;-84
2022/11/07 05:01:33;;;;;;;;;;;;;;;14.61;63.72;100205.19;4333540;33;19984;-85
2022/11/07 05:03:59;;;;;;;;;;;;;;;14.71;63.29;100206.09;4339852;33;20031;-84
2022/11/07 05:06:26;;;;;;;;;;;;;;;14.72;63.09;100213.06;4341164;33;19987;-84
2022/11/07 05:08:53;;;;;;;;;;;;;;;14.65;63.27;100206.06;4325858;33;20507;-83
2022/11/07 05:11:20;;;;;;;;;;;;;;;14.69;63.09;100207.81;4328909;33;20039;-85
2022/11/07 05:13:47;;;;;;;;;;;;;;;14.49;63.57;100214.63;4340444;32;19980;-83
2022/11/07 05:16:15;;;;;;;;;;;;;;;14.51;63.53;100210.31;4332588;32;19980;-84
2022/11/07 05:18:42;;;;;;;;;;;;;;;14.46;63.72;100217.22;4329258;33;20333;-83
2022/11/07 05:21:09;;;;;;;;;;;;;;;14.58;63.22;100204.28;4335598;32;20334;-83
2022/11/07 05:23:37;;;;;;;;;;;;;;;14.52;63.52;100206.87;4326005;33;19991;-84
2022/11/07 05:26:04;;;;;;;;;;;;;;;14.56;63.21;100208.62;4346700;32;19987;-85
2022/11/07 05:28:31;;;;;;;;;;;;;;;14.69;62.84;100207.81;4355863;32;19995;-85
2022/11/07 05:31:05;;;;;;;;;;;;;;;14.73;62.74;100206.97;4355484;32;19991;-83
2022/11/07 05:33:32;;;;;;;;;;;;;;;14.74;62.72;100210.44;4359494;32;19975;-85
2022/11/07 05:36:09;;;;;;;;;;;;;;;14.60;63.33;100212.97;4363788;32;19987;-82
2022/11/07 05:38:36;;;;;;;;;;;;;;;14.61;63.18;100214.72;4370346;32;20344;-83
2022/11/07 05:41:03;;;;;;;;;;;;;;;14.47;63.66;100217.22;4362320;32;20710;-85
2022/11/07 05:43:31;;;;;;;;;;;;;;;14.67;63.05;100235.59;4366697;32;20002;-84
2022/11/07 05:46:01;;;;;;;;;;;;;;;14.64;63.08;100230.37;4356236;32;20002;-83
2022/11/07 05:48:29;;;;;;;;;;;;;;;14.62;63.36;100243.41;4367639;32;19987;-84
2022/11/07 05:51:00;;;;;;;;;;;;;;;14.52;63.94;100240.72;4366278;32;19987;-81
2022/11/07 05:53:27;;;;;;;;;;;;;;;14.51;63.90;100244.19;4361523;32;19979;-80
2022/11/07 05:55:54;;;;;;;;;;;;;;;14.56;64.01;100252.91;4362775;32;20046;-82
2022/11/07 05:58:21;;;;;;;;;;;;;;;14.02;65.61;100254.19;4364695;32;19991;-80
2022/11/07 06:00:48;;;;;;;;;;;;;;;13.82;66.84;100262.69;4358395;32;19982;-82
2022/11/07 06:03:15;;;;;;;;;;;;;;;14.03;66.19;100266.34;4355746;32;19975;-82
2022/11/07 06:05:42;;;;;;;;;;;;;;;14.10;65.83;100262.94;4355690;32;20014;-82
2022/11/07 06:08:10;;;;;;;;;;;;;;;14.41;64.58;100270.13;4356047;32;20329;-83
2022/11/07 06:10:37;;;;;;;;;;;;;;;14.55;64.34;100266.78;4357651;32;19991;-83
2022/11/07 06:13:05;;;;;;;;;;;;;;;14.52;64.46;100275.47;4378903;32;20917;-82
2022/11/07 06:15:33;;;;;;;;;;;;;;;14.63;64.02;100275.53;4356424;32;779991;-81
2022/11/07 06:18:00;;;;;;;;;;;;;;;14.61;64.15;100278.13;4369982;32;19994;-81
2022/11/07 06:20:27;;;;;;;;;;;;;;;14.55;64.43;100282.41;4353213;32;20000;-81
2022/11/07 06:22:57;;;;;;;;;;;;;;;14.54;64.42;100296.31;4355611;32;20005;-81
2022/11/07 06:25:26;;;;;;;;;;;;;;;14.59;64.44;100299.81;4361835;32;20238;-81
2022/11/07 06:27:57;;;;;;;;;;;;;;;14.54;64.60;100301.50;4358453;32;19991;-81
2022/11/07 06:30:24;;;;;;;;;;;;;;;14.71;64.09;100299.00;4354963;32;20509;-82
2022/11/07 06:32:51;;;;;;;;;;;;;;;14.75;63.99;100316.44;4355645;32;19999;-82
2022/11/07 06:35:17;;;;;;;;;;;;;;;14.77;64.00;100322.50;4366100;32;20005;-81
2022/11/07 06:37:44;;;;;;;;;;;;;;;14.62;64.78;100320.69;4353958;32;20030;-80
2022/11/07 06:40:11;;;;;;;;;;;;;;;14.80;64.36;100323.41;4355277;32;20029;-81
2022/11/07 06:42:38;;;;;;;;;;;;;;;14.82;64.18;100323.44;4359176;32;19983;-83
2022/11/07 06:45:05;;;;;;;;;;;;;;;14.85;64.23;100320.84;4363423;32;20002;-81
2022/11/07 06:47:32;;;;;;;;;;;;;;;14.79;64.29;100324.28;4355232;32;20002;-81
2022/11/07 06:49:58;;;;;;;;;;;;;;;14.73;64.61;100326.84;4366826;32;19982;-81
2022/11/07 06:52:26;;;;;;;;;;;;;;;14.79;64.20;100324.28;4357012;32;19979;-83
2022/11/07 06:54:53;;;;;;;;;;;;;;;14.97;63.91;100333.09;4362888;32;20411;-81
2022/11/07 06:57:20;;;;;;;;;;;;;;;14.99;63.68;100333.94;4363870;32;20811;-81
2022/11/07 06:59:47;;;;;;;;;;;;;;;15.01;63.66;100334.84;4377058;32;20038;-84
2022/11/07 07:02:17;;;;;;;;;;;;;;;15.01;63.73;100337.44;4370342;32;19975;-83
2022/11/07 07:05:04;;;;;;;;;;;;;;;14.95;63.92;100326.97;4368518;32;20034;-84
2022/11/07 07:07:31;;;;;;;;;;;;;;;15.00;63.56;100338.31;4361777;32;19998;-82
2022/11/07 07:09:58;;;;;;;;;;;;;;;14.87;63.66;100338.25;4354958;32;20411;-81
2022/11/07 07:12:26;;;;;;;;;;;;;;;14.96;63.46;100341.75;4358568;32;19971;-83
2022/11/07 07:14:53;;;;;;;;;;;;;;;15.07;63.00;100345.31;4360627;32;19975;-83
2022/11/07 07:17:19;;;;;;;;;;;;;;;15.13;62.68;100353.16;4355379;32;19995;-82
2022/11/07 07:19:46;;;;;;;;;;;;;;;15.05;62.63;100357.44;4355091;32;19984;-84
2022/11/07 07:22:13;;;;;;;;;;;;;;;15.12;62.76;100348.78;4355072;32;19993;-83
2022/11/07 07:24:39;;;;;;;;;;;;;;;15.14;62.85;100346.22;4355198;32;21018;-84
2022/11/07 07:27:06;;;;;;;;;;;;;;;15.22;62.46;100350.62;4358150;32;19979;-82
2022/11/07 07:29:33;;;;;;;;;;;;;;;15.04;62.89;100351.38;4360409;32;20002;-85
2022/11/07 07:32:00;;;;;;;;;;;;;;;15.03;62.98;100353.97;4355228;32;20002;-84
2022/11/07 07:34:26;;;;;;;;;;;;;;;15.07;63.11;100350.53;4355590;32;19998;-81
2022/11/07 07:36:53;;;;;;;;;;;;;;;15.07;63.00;100360.97;4367048;32;19987;-84
2022/11/07 07:39:20;;;;;;;;;;;;;;;15.25;62.58;100355.84;4354724;32;19987;-83
2022/11/07 07:41:48;;;;;;;;;;;;;;;15.35;61.86;100357.62;4358198;32;19983;-84
2022/11/07 07:44:17;;;;;;;;;;;;;;;15.42;61.50;100357.66;4367453;32;19979;-86
2022/11/07 07:46:44;;;;;;;;;;;;;;;15.31;61.75;100355.84;4356244;32;19987;-82
2022/11/07 07:49:11;;;;;;;;;;;;;;;15.37;61.53;100369.81;4354999;32;19987;-82
2022/11/07 07:51:38;;;;;;;;;;;;;;;15.29;62.11;100361.94;4356798;32;19990;-83
2022/11/07 07:54:06;;;;;;;;;;;;;;;15.29;62.24;100362.81;4375785;32;20372;-85
2022/11/07 07:56:33;;;;;;;;;;;;;;;15.34;61.98;100365.44;4376906;32;19994;-82
2022/11/07 07:59:01;;;;;;;;;;;;;;;15.51;61.62;100363.78;4381803;32;20969;-85
2022/11/07 08:01:28;;;;;;;;;;;;;;;15.47;61.60;100355.94;4363152;32;20002;-83
2022/11/07 08:03:55;;;;;;;;;;;;;;;15.48;61.99;100362.91;4354069;32;19983;-83
2022/11/07 08:06:28;;;;;;;;;;;;;;;15.28;62.71;100361.09;4354853;32;20321;-83
2022/11/07 08:08:55;;;;;;;;;;;;;;;15.51;62.03;100357.72;4353308;32;19998;-84
2022/11/07 08:11:21;;;;;;;;;;;;;;;15.51;61.89;100358.59;4356616;32;20304;-83
2022/11/07 08:13:48;;;;;;;;;;;;;;;15.43;62.10;100364.62;4363155;32;20037;-82
2022/11/07 08:16:15;;;;;;;;;;;;;;;15.70;60.91;100358.69;4354015;32;19986;-81
2022/11/07 08:18:42;;;;;;;;;;;;;;;15.60;61.25;100368.16;4356586;32;20337;-83
2022/11/07 08:21:09;;;;;;;;;;;;;;;15.53;61.86;100356.81;4365740;32;19979;-82
2022/11/07 08:23:36;;;;;;;;;;;;;;;15.45;62.30;100357.69;4355681;32;20528;-83
2022/11/07 08:26:03;;;;;;;;;;;;;;;15.64;61.65;100362.09;4356807;32;20041;-81
2022/11/07 08:28:31;;;;;;;;;;;;;;;15.72;61.76;100357.81;4367904;32;20004;-82
2022/11/07 08:30:59;;;;;;;;;;;;;;;15.76;61.90;100359.59;4343001;32;20345;-83
2022/11/07 08:33:26;;;;;;;;;;;;;;;15.38;63.76;100355.87;4359680;32;20050;-84
2022/11/07 08:35:54;;;;;;;;;;;;;;;15.59;62.92;100356.00;4363830;32;19995;-81
2022/11/07 08:38:21;;;;;;;;;;;;;;;15.87;61.95;100356.13;4355054;32;21497;-82
2022/11/07 08:40:50;;;;;;;;;;;;;;;15.81;61.35;100352.63;4364887;32;20021;-81
2022/11/07 08:43:17;;;;;;;;;;;;;;;15.99;61.09;100354.41;4359024;32;19979;-81
2022/11/07 08:45:45;;;;;;;;;;;;;;;15.85;61.28;100355.25;4357990;32;20009;-81
2022/11/07 08:48:12;;;;;;;;;;;;;;;15.92;61.18;100352.66;4365370;32;19995;-85
2022/11/07 08:50:39;;;;;;;;;;;;;;;15.93;60.71;100350.91;4356418;32;20009;-82
2022/11/07 08:53:06;;;;;;;;;;;;;;;15.81;61.57;100363.06;4363287;32;20010;-85
2022/11/07 08:55:32;;;;;;;;;;;;;;;16.15;60.23;100362.28;4371317;32;19999;-84
2022/11/07 08:57:59;;;;;;;;;;;;;;;16.10;60.06;100364.88;4371342;32;19987;-82
2022/11/07 09:00:27;;;;;;;;;;;;;;;16.13;59.93;100364.88;4371228;32;19997;-85
2022/11/07 09:02:53;;;;;;;;;;;;;;;15.99;61.11;100361.38;4371061;32;19987;-81
2022/11/07 09:05:40;;;;;;;;;;;;;;;15.73;62.69;100370.00;4371186;32;20402;-83
2022/11/07 09:08:07;;;;;;;;;;;;;;;15.95;61.75;100375.28;4371881;32;19987;-84
2022/11/07 09:10:34;;;;;;;;;;;;;;;16.11;61.01;100374.44;4371158;32;19987;-83
2022/11/07 09:13:00;;;;;;;;;;;;;;;16.17;60.90;100370.97;4369526;32;19998;-83
2022/11/07 09:15:27;;;;;;;;;;;;;;;16.17;60.42;100374.44;4363106;32;19983;-81
2022/11/07 09:17:54;;;;;;;;;;;;;;;16.21;60.52;100380.59;4371227;32;20529;-83
2022/11/07 09:20:22;;;;;;;;;;;;;;;16.31;59.75;100378.84;4370821;32;19983;-82
2022/11/07 09:22:49;;;;;;;;;;;;;;;16.26;60.01;100381.44;4369834;32;19984;-82
2022/11/07 09:25:16;;;;;;;;;;;;;;;16.26;60.18;100378.84;4357591;32;20009;-85
2022/11/07 09:27:43;;;;;;;;;;;;;;;16.31;59.68;100384.94;4370710;32;20001;-86
2022/11/07 09:30:11;;;;;;;;;;;;;;;16.00;60.97;100381.41;4364969;32;19983;-85
2022/11/07 09:32:38;;;;;;;;;;;;;;;16.24;60.46;100384.06;4364783;32;19987;-84
2022/11/07 09:35:11;;;;;;;;;;;;;;;16.14;59.69;100381.41;4355261;32;19987;-82
2022/11/07 09:37:39;;;;;;;;;;;;;;;16.32;59.78;100380.59;4355957;32;20027;-82
2022/11/07 09:40:09;;;;;;;;;;;;;;;16.21;60.38;100378.84;4354520;32;19989;-82
2022/11/07 09:42:46;;;;;;;;;;;;;;;16.38;60.10;100381.47;4354605;32;20006;-82
2022/11/07 09:45:12;;;;;;;;;;;;;;;16.38;60.25;100391.06;4354587;32;19979;-82
2022/11/07 09:47:44;;;;;;;;;;;;;;;16.39;60.08;100395.41;4354440;32;19991;-82
2022/11/07 09:50:14;;;;;;;;;;;;;;;16.39;60.03;100377.09;4360680;32;19987;-83
2022/11/07 09:52:44;;;;;;;;;;;;;;;16.40;59.55;100378.84;3756463;32;10011817;-88
2022/11/07 09:55:14;;;;;;;;;;;;;;;16.20;60.70;100379.69;4367650;32;19998;-87
2022/11/07 09:57:41;;;;;;;;;;;;;;;16.17;61.00;100376.19;4367496;32;20325;-81
2022/11/07 10:00:18;;;;;;;;;;;;;;;16.30;61.10;100377.09;4358300;32;20037;-84
2022/11/07 10:02:47;;;;;;;;;;;;;;;16.35;60.33;100380.59;4359424;32;20357;-82
2022/11/07 10:05:27;;;;;;;;;;;;;;;16.43;59.62;100384.06;4358229;32;20699;-82
2022/11/07 10:08:00;;;;;;;;;;;;;;;16.28;60.39;100380.59;4364160;32;19998;-82
2022/11/07 10:10:31;;;;;;;;;;;;;;;16.19;60.81;100375.34;4365804;32;19983;-81
2022/11/07 10:13:01;;;;;;;;;;;;;;;16.30;60.65;100380.56;4360696;32;19983;-82
2022/11/07 10:15:47;;;;;;;;;;;;;;;16.33;60.67;100372.75;4370682;32;20400;-82
2022/11/07 10:18:38;;;;;;;;;;;;;;;16.24;60.29;100368.41;4340878;32;20047;-82
2022/11/07 10:21:08;;;;;;;;;;;;;;;16.13;60.90;100367.50;4366777;32;19983;-82
2022/11/07 10:24:16;;;;;;;;;;;;;;;16.47;59.67;100376.25;4346592;32;19994;-82
2022/11/07 10:26:43;;;;;;;;;;;;;;;16.34;60.29;100373.63;4354597;32;19983;-82
2022/11/07 10:29:11;;;;;;;;;;;;;;;16.32;60.57;100367.53;4354943;32;20025;-82
2022/11/07 10:31:39;;;;;;;;;;;;;;;16.27;60.67;100363.19;4365233;32;19987;-81
2022/11/07 10:34:29;;;;;;;;;;;;;;;16.31;60.71;100368.41;4355105;32;20013;-82
2022/11/07 10:36:56;;;;;;;;;;;;;;;16.33;60.71;100364.03;4355131;32;19987;-81
2022/11/07 10:39:22;;;;;;;;;;;;;;;16.38;60.51;100364.91;4355626;32;19987;-81
2022/11/07 10:42:05;;;;;;;;;;;;;;;16.33;60.85;100362.28;4355573;32;20050;-82
2022/11/07 10:44:31;;;;;;;;;;;;;;;16.07;62.37;100354.41;4355519;32;20305;-81
2022/11/07 10:46:58;;;;;;;;;;;;;;;16.30;61.12;100356.19;4355620;32;19991;-83
2022/11/07 10:49:26;;;;;;;;;;;;;;;16.20;61.39;100360.53;4378382;32;20022;-82
2022/11/07 10:51:54;;;;;;;;;;;;;;;16.25;61.79;100351.84;4349071;32;20053;-82
2022/11/07 10:54:24;;;;;;;;;;;;;;;16.42;61.08;100345.75;4340653;33;20002;-83
2022/11/07 10:57:02;;;;;;;;;;;;;;;16.27;61.15;100344.88;4355657;32;19979;-83
2022/11/07 10:59:30;;;;;;;;;;;;;;;16.25;61.16;100346.63;4363968;32;20871;-82
2022/11/07 11:02:02;;;;;;;;;;;;;;;16.17;60.42;100339.63;4340510;33;20038;-82
2022/11/07 11:04:32;;;;;;;;;;;;;;;16.20;60.85;100335.28;4362934;32;19979;-82
2022/11/07 11:07:00;;;;;;;;;;;;;;;16.28;60.45;100336.19;4340578;33;20046;-83
2022/11/07 11:09:34;;;;;;;;;;;;;;;16.21;60.99;100342.28;4348432;32;20387;-82
2022/11/07 11:12:05;;;;;;;;;;;;;;;16.28;60.99;100323.12;4349941;32;19991;-82
2022/11/07 11:14:31;;;;;;;;;;;;;;;16.37;60.61;100321.34;4353004;32;19975;-83
2022/11/07 11:16:58;;;;;;;;;;;;;;;16.30;60.71;100319.63;4345841;32;20010;-82
2022/11/07 11:19:26;;;;;;;;;;;;;;;16.31;60.55;100321.38;4341897;32;20442;-81
2022/11/07 11:21:53;;;;;;;;;;;;;;;16.23;61.11;100314.38;4373581;32;20029;-82
2022/11/07 11:24:31;;;;;;;;;;;;;;;16.26;61.28;100314.38;4363217;32;20018;-82
2022/11/07 11:26:59;;;;;;;;;;;;;;;16.07;61.58;100317.84;4339850;33;19999;-83
2022/11/07 11:29:27;;;;;;;;;;;;;;;16.36;60.92;100319.63;4363121;32;20002;-82
2022/11/07 11:31:54;;;;;;;;;;;;;;;16.06;62.55;100321.34;4343928;32;20009;-83
2022/11/07 11:34:27;;;;;;;;;;;;;;;16.19;62.20;100315.25;4347958;32;19975;-83
2022/11/07 11:37:08;;;;;;;;;;;;;;;16.21;61.61;100320.50;4363175;32;20431;-83
2022/11/07 11:39:45;;;;;;;;;;;;;;;16.03;62.37;100321.34;4374583;32;19983;-84
2022/11/07 11:42:18;;;;;;;;;;;;;;;16.26;61.86;100313.53;4362907;32;19983;-83
2022/11/07 11:44:45;;;;;;;;;;;;;;;16.14;61.19;100311.75;4339793;33;19987;-84
2022/11/07 11:47:23;;;;;;;;;;;;;;;16.20;61.02;100309.16;4369149;32;19983;-85
2022/11/07 11:50:00;;;;;;;;;;;;;;;16.39;61.07;100315.25;4361392;32;19994;-84
2022/11/07 11:52:27;;;;;;;;;;;;;;;16.38;60.49;100312.66;4375116;32;19991;-84
2022/11/07 11:54:54;;;;;;;;;;;;;;;16.14;60.56;100317.00;4344637;32;20707;-84
2022/11/07 11:57:40;;;;;;;;;;;;;;;16.42;58.22;100310.03;4353034;32;19991;-84
2022/11/07 12:00:06;;;;;;;;;;;;;;;15.97;59.99;100316.97;4358698;32;20037;-83
2022/11/07 12:02:53;;;;;;;;;;;;;;;16.26;58.62;100313.53;4363825;32;20062;-84
2022/11/07 12:05:28;;;;;;;;;;;;;;;15.91;60.88;100309.13;4362239;32;19971;-84
2022/11/07 12:08:11;;;;;;;;;;;;;;;16.27;57.69;100305.72;4360755;32;20352;-84
2022/11/07 12:10:50;;;;;;;;;;;;;;;16.12;58.17;100305.69;4352598;32;20002;-84
2022/11/07 12:13:24;;;;;;;;;;;;;;;15.99;58.14;100307.41;4360215;32;19987;-84
2022/11/07 12:16:05;;;;;;;;;;;;;;;15.84;59.57;100309.13;4361485;32;19976;-83
2022/11/07 12:18:51;;;;;;;;;;;;;;;15.85;60.16;100303.03;4371401;32;19975;-83
2022/11/07 12:21:51;;;;;;;;;;;;;;;16.02;59.50;100298.72;4362403;32;19991;-82
2022/11/07 12:24:18;;;;;;;;;;;;;;;16.24;57.51;100299.56;4364554;32;19987;-83
2022/11/07 12:26:44;;;;;;;;;;;;;;;16.17;58.05;100295.22;4361521;32;19979;-83
2022/11/07 12:29:27;;;;;;;;;;;;;;;16.04;58.24;100302.19;4363628;32;19991;-84
2022/11/07 12:31:54;;;;;;;;;;;;;;;16.13;57.83;100286.53;4356538;32;19987;-83
2022/11/07 12:34:39;;;;;;;;;;;;;;;16.15;57.16;100292.62;4354618;32;20481;-83
2022/11/07 12:37:24;;;;;;;;;;;;;;;16.42;56.38;100290.88;4353909;32;19994;-83
2022/11/07 12:39:57;;;;;;;;;;;;;;;16.29;56.66;100292.62;4347603;32;20003;-83
2022/11/07 12:42:24;;;;;;;;;;;;;;;16.19;58.20;100290.88;4354314;32;20033;-84
2022/11/07 12:45:13;;;;;;;;;;;;;;;16.15;59.36;100294.37;4354600;32;20356;-83
2022/11/07 12:47:40;;;;;;;;;;;;;;;16.28;59.26;100289.16;4347456;32;20767;-82
2022/11/07 12:50:13;;;;;;;;;;;;;;;16.38;57.64;100291.75;4354756;32;19998;-82
2022/11/07 12:52:44;;;;;;;;;;;;;;;16.66;55.73;100283.03;4355254;32;19998;-83
2022/11/07 12:55:17;;;;;;;;;;;;;;;16.57;56.35;100290.00;4366256;32;19997;-82
2022/11/07 12:57:46;;;;;;;;;;;;;;;16.49;56.33;100290.00;4355590;32;19990;-83